sensor_id;sensor_type;location;lat;lon;timestamp;P1;durP1;ratioP1;P2;durP2;ratioP2
74512;SDS011;62992;52.052;8.550;2022-12-29T00:00:39;1.20;;;0.77;;
74512;SDS011;62992;52.052;8.550;2022-12-29T00:03:23;1.50;;;1.20;;
74512;SDS011;62992;52.052;8.550;2022-12-29T00:06:07;1.33;;;0.98;;
74512;SDS011;62992;52.052;8.550;2022-12-29T00:08:52;1.23;;;0.80;;
74512;SDS011;62992;52.052;8.550;2022-12-29T00:11:36;1.48;;;0.77;;
74512;SDS011;62992;52.052;8.550;2022-12-29T00:14:20;1.50;;;0.90;;
74512;SDS011;62992;52.052;8.550;2022-12-29T00:17:23;1.10;;;0.73;;
74512;SDS011;62992;52.052;8.550;2022-12-29T00:20:07;1.88;;;0.80;;
74512;SDS011;62992;52.052;8.550;2022-12-29T00:23:10;1.20;;;0.93;;
74512;SDS011;62992;52.052;8.550;2022-12-29T00:26:13;2.00;;;1.10;;
74512;SDS011;62992;52.052;8.550;2022-12-29T00:29:18;1.65;;;0.80;;
74512;SDS011;62992;52.052;8.550;2022-12-29T00:32:28;4.22;;;1.13;;
74512;SDS011;62992;52.052;8.550;2022-12-29T00:35:33;1.67;;;0.82;;
74512;SDS011;62992;52.052;8.550;2022-12-29T00:38:23;2.83;;;1.00;;
74512;SDS011;62992;52.052;8.550;2022-12-29T00:41:26;1.33;;;0.80;;
74512;SDS011;62992;52.052;8.550;2022-12-29T00:44:29;1.33;;;0.93;;
74512;SDS011;62992;52.052;8.550;2022-12-29T00:47:13;1.60;;;0.90;;
74512;SDS011;62992;52.052;8.550;2022-12-29T00:49:57;1.60;;;0.98;;
74512;SDS011;62992;52.052;8.550;2022-12-29T00:52:41;1.27;;;0.70;;
74512;SDS011;62992;52.052;8.550;2022-12-29T00:55:25;1.20;;;0.85;;
74512;SDS011;62992;52.052;8.550;2022-12-29T00:58:09;1.40;;;0.90;;
74512;SDS011;62992;52.052;8.550;2022-12-29T01:01:00;1.15;;;0.88;;
74512;SDS011;62992;52.052;8.550;2022-12-29T01:03:53;2.08;;;1.02;;
74512;SDS011;62992;52.052;8.550;2022-12-29T01:06:38;0.73;;;0.60;;
74512;SDS011;62992;52.052;8.550;2022-12-29T01:09:24;1.38;;;0.88;;
74512;SDS011;62992;52.052;8.550;2022-12-29T01:12:28;2.20;;;0.82;;
74512;SDS011;62992;52.052;8.550;2022-12-29T01:15:24;0.68;;;0.60;;
74512;SDS011;62992;52.052;8.550;2022-12-29T01:18:08;1.15;;;0.60;;
74512;SDS011;62992;52.052;8.550;2022-12-29T01:21:02;1.27;;;0.70;;
74512;SDS011;62992;52.052;8.550;2022-12-29T01:23:48;1.33;;;0.80;;
74512;SDS011;62992;52.052;8.550;2022-12-29T01:26:32;2.00;;;0.63;;
74512;SDS011;62992;52.052;8.550;2022-12-29T01:29:16;2.03;;;0.70;;
74512;SDS011;62992;52.052;8.550;2022-12-29T01:32:01;0.88;;;0.70;;
74512;SDS011;62992;52.052;8.550;2022-12-29T01:34:45;1.08;;;0.55;;
74512;SDS011;62992;52.052;8.550;2022-12-29T01:37:29;1.05;;;0.63;;
74512;SDS011;62992;52.052;8.550;2022-12-29T01:40:13;1.85;;;0.60;;
74512;SDS011;62992;52.052;8.550;2022-12-29T01:42:58;2.25;;;0.75;;
74512;SDS011;62992;52.052;8.550;2022-12-29T01:45:44;2.05;;;0.70;;
74512;SDS011;62992;52.052;8.550;2022-12-29T01:48:34;4.78;;;0.85;;
74512;SDS011;62992;52.052;8.550;2022-12-29T01:51:18;1.38;;;1.13;;
74512;SDS011;62992;52.052;8.550;2022-12-29T01:54:05;1.15;;;0.60;;
74512;SDS011;62992;52.052;8.550;2022-12-29T01:56:56;0.52;;;0.35;;
74512;SDS011;62992;52.052;8.550;2022-12-29T01:59:48;0.80;;;0.50;;
74512;SDS011;62992;52.052;8.550;2022-12-29T02:02:39;0.77;;;0.38;;
74512;SDS011;62992;52.052;8.550;2022-12-29T02:05:35;0.50;;;0.30;;
74512;SDS011;62992;52.052;8.550;2022-12-29T02:08:26;0.65;;;0.40;;
74512;SDS011;62992;52.052;8.550;2022-12-29T02:11:12;0.77;;;0.50;;
74512;SDS011;62992;52.052;8.550;2022-12-29T02:13:57;1.05;;;0.40;;
74512;SDS011;62992;52.052;8.550;2022-12-29T02:16:49;1.30;;;0.30;;
74512;SDS011;62992;52.052;8.550;2022-12-29T02:23:29;0.75;;;0.50;;
74512;SDS011;62992;52.052;8.550;2022-12-29T02:29:33;0.65;;;0.50;;
74512;SDS011;62992;52.052;8.550;2022-12-29T02:39:27;0.60;;;0.40;;
74512;SDS011;62992;52.052;8.550;2022-12-29T02:45:24;0.98;;;0.30;;
74512;SDS011;62992;52.052;8.550;2022-12-29T02:51:15;0.73;;;0.50;;
74512;SDS011;62992;52.052;8.550;2022-12-29T02:54:04;1.13;;;0.40;;
74512;SDS011;62992;52.052;8.550;2022-12-29T02:57:11;1.77;;;0.50;;
74512;SDS011;62992;52.052;8.550;2022-12-29T03:00:16;0.95;;;0.30;;
74512;SDS011;62992;52.052;8.550;2022-12-29T03:05:53;2.30;;;0.75;;
74512;SDS011;62992;52.052;8.550;2022-12-29T03:12:08;0.43;;;0.22;;
74512;SDS011;62992;52.052;8.550;2022-12-29T03:15:04;0.40;;;0.30;;
74512;SDS011;62992;52.052;8.550;2022-12-29T03:18:14;0.90;;;0.22;;
74512;SDS011;62992;52.052;8.550;2022-12-29T03:21:09;1.35;;;0.50;;
74512;SDS011;62992;52.052;8.550;2022-12-29T03:24:05;0.80;;;0.38;;
74512;SDS011;62992;52.052;8.550;2022-12-29T03:26:50;1.10;;;0.30;;
74512;SDS011;62992;52.052;8.550;2022-12-29T03:29:39;0.30;;;0.20;;
74512;SDS011;62992;52.052;8.550;2022-12-29T03:32:31;1.35;;;0.22;;
74512;SDS011;62992;52.052;8.550;2022-12-29T03:35:19;0.32;;;0.30;;
74512;SDS011;62992;52.052;8.550;2022-12-29T03:38:08;0.40;;;0.30;;
74512;SDS011;62992;52.052;8.550;2022-12-29T03:41:00;0.17;;;0.17;;
74512;SDS011;62992;52.052;8.550;2022-12-29T03:43:48;1.02;;;0.20;;
74512;SDS011;62992;52.052;8.550;2022-12-29T03:46:32;0.28;;;0.28;;
74512;SDS011;62992;52.052;8.550;2022-12-29T03:49:16;0.30;;;0.20;;
74512;SDS011;62992;52.052;8.550;2022-12-29T03:52:01;0.30;;;0.22;;
74512;SDS011;62992;52.052;8.550;2022-12-29T03:54:45;0.73;;;0.30;;
74512;SDS011;62992;52.052;8.550;2022-12-29T03:57:30;0.20;;;0.20;;
74512;SDS011;62992;52.052;8.550;2022-12-29T04:00:14;0.68;;;0.20;;
74512;SDS011;62992;52.052;8.550;2022-12-29T04:02:59;4.47;;;0.70;;
74512;SDS011;62992;52.052;8.550;2022-12-29T04:05:43;0.55;;;0.35;;
74512;SDS011;62992;52.052;8.550;2022-12-29T04:08:28;1.02;;;0.40;;
74512;SDS011;62992;52.052;8.550;2022-12-29T04:11:12;0.50;;;0.20;;
74512;SDS011;62992;52.052;8.550;2022-12-29T04:13:56;0.40;;;0.22;;
74512;SDS011;62992;52.052;8.550;2022-12-29T04:16:40;0.95;;;0.40;;
74512;SDS011;62992;52.052;8.550;2022-12-29T04:19:24;1.23;;;0.40;;
74512;SDS011;62992;52.052;8.550;2022-12-29T04:22:08;0.68;;;0.40;;
74512;SDS011;62992;52.052;8.550;2022-12-29T04:24:52;0.47;;;0.25;;
74512;SDS011;62992;52.052;8.550;2022-12-29T04:27:36;0.73;;;0.30;;
74512;SDS011;62992;52.052;8.550;2022-12-29T04:30:20;1.00;;;0.47;;
74512;SDS011;62992;52.052;8.550;2022-12-29T04:33:04;1.20;;;0.40;;
74512;SDS011;62992;52.052;8.550;2022-12-29T04:35:48;0.60;;;0.30;;
74512;SDS011;62992;52.052;8.550;2022-12-29T04:38:32;0.50;;;0.32;;
74512;SDS011;62992;52.052;8.550;2022-12-29T04:41:16;1.02;;;0.40;;
74512;SDS011;62992;52.052;8.550;2022-12-29T04:44:00;1.25;;;0.40;;
74512;SDS011;62992;52.052;8.550;2022-12-29T04:46:44;0.80;;;0.10;;
74512;SDS011;62992;52.052;8.550;2022-12-29T04:49:28;1.80;;;0.38;;
74512;SDS011;62992;52.052;8.550;2022-12-29T04:52:13;0.63;;;0.30;;
74512;SDS011;62992;52.052;8.550;2022-12-29T04:54:56;0.90;;;0.30;;
74512;SDS011;62992;52.052;8.550;2022-12-29T04:57:41;1.95;;;0.30;;
74512;SDS011;62992;52.052;8.550;2022-12-29T05:00:25;0.75;;;0.40;;
74512;SDS011;62992;52.052;8.550;2022-12-29T05:03:09;0.45;;;0.30;;
74512;SDS011;62992;52.052;8.550;2022-12-29T05:05:54;0.82;;;0.57;;
74512;SDS011;62992;52.052;8.550;2022-12-29T05:08:39;1.20;;;0.28;;
74512;SDS011;62992;52.052;8.550;2022-12-29T05:11:23;1.15;;;0.40;;
74512;SDS011;62992;52.052;8.550;2022-12-29T05:14:07;1.73;;;0.40;;
74512;SDS011;62992;52.052;8.550;2022-12-29T05:16:51;1.38;;;0.40;;
74512;SDS011;62992;52.052;8.550;2022-12-29T05:19:36;0.50;;;0.30;;
74512;SDS011;62992;52.052;8.550;2022-12-29T05:22:21;0.57;;;0.30;;
74512;SDS011;62992;52.052;8.550;2022-12-29T05:25:06;0.90;;;0.30;;
74512;SDS011;62992;52.052;8.550;2022-12-29T05:27:50;1.02;;;0.30;;
74512;SDS011;62992;52.052;8.550;2022-12-29T05:30:35;1.75;;;0.38;;
74512;SDS011;62992;52.052;8.550;2022-12-29T05:33:19;1.45;;;0.40;;
74512;SDS011;62992;52.052;8.550;2022-12-29T05:36:04;2.33;;;0.50;;
74512;SDS011;62992;52.052;8.550;2022-12-29T05:38:49;0.95;;;0.40;;
74512;SDS011;62992;52.052;8.550;2022-12-29T05:41:33;1.35;;;0.40;;
74512;SDS011;62992;52.052;8.550;2022-12-29T05:44:17;0.73;;;0.45;;
74512;SDS011;62992;52.052;8.550;2022-12-29T05:47:01;0.77;;;0.38;;
74512;SDS011;62992;52.052;8.550;2022-12-29T05:49:46;0.88;;;0.40;;
74512;SDS011;62992;52.052;8.550;2022-12-29T05:52:29;0.40;;;0.20;;
74512;SDS011;62992;52.052;8.550;2022-12-29T05:55:14;1.20;;;0.50;;
74512;SDS011;62992;52.052;8.550;2022-12-29T05:57:58;0.30;;;0.25;;
74512;SDS011;62992;52.052;8.550;2022-12-29T06:00:42;0.52;;;0.30;;
74512;SDS011;62992;52.052;8.550;2022-12-29T06:03:27;0.38;;;0.30;;
74512;SDS011;62992;52.052;8.550;2022-12-29T06:06:10;0.65;;;0.32;;
74512;SDS011;62992;52.052;8.550;2022-12-29T06:08:55;0.30;;;0.30;;
74512;SDS011;62992;52.052;8.550;2022-12-29T06:11:39;0.63;;;0.30;;
74512;SDS011;62992;52.052;8.550;2022-12-29T06:14:23;0.40;;;0.40;;
74512;SDS011;62992;52.052;8.550;2022-12-29T06:17:07;1.00;;;0.35;;
74512;SDS011;62992;52.052;8.550;2022-12-29T06:19:51;0.63;;;0.30;;
74512;SDS011;62992;52.052;8.550;2022-12-29T06:22:35;0.47;;;0.40;;
74512;SDS011;62992;52.052;8.550;2022-12-29T06:25:19;4.10;;;0.70;;
74512;SDS011;62992;52.052;8.550;2022-12-29T06:28:04;0.75;;;0.30;;
74512;SDS011;62992;52.052;8.550;2022-12-29T06:30:49;2.20;;;0.32;;
74512;SDS011;62992;52.052;8.550;2022-12-29T06:33:33;0.98;;;0.20;;
74512;SDS011;62992;52.052;8.550;2022-12-29T06:36:17;0.40;;;0.17;;
74512;SDS011;62992;52.052;8.550;2022-12-29T06:39:01;1.23;;;0.15;;
74512;SDS011;62992;52.052;8.550;2022-12-29T06:41:45;0.10;;;0.10;;
74512;SDS011;62992;52.052;8.550;2022-12-29T06:44:29;2.22;;;1.05;;
74512;SDS011;62992;52.052;8.550;2022-12-29T06:47:13;0.75;;;0.13;;
74512;SDS011;62992;52.052;8.550;2022-12-29T06:49:57;1.02;;;0.20;;
74512;SDS011;62992;52.052;8.550;2022-12-29T06:52:41;1.50;;;0.30;;
74512;SDS011;62992;52.052;8.550;2022-12-29T06:55:26;1.67;;;0.20;;
74512;SDS011;62992;52.052;8.550;2022-12-29T06:58:09;0.75;;;0.30;;
74512;SDS011;62992;52.052;8.550;2022-12-29T07:00:54;0.85;;;0.40;;
74512;SDS011;62992;52.052;8.550;2022-12-29T07:03:38;1.95;;;0.82;;
74512;SDS011;62992;52.052;8.550;2022-12-29T07:06:25;2.20;;;0.50;;
74512;SDS011;62992;52.052;8.550;2022-12-29T07:09:09;1.30;;;0.60;;
74512;SDS011;62992;52.052;8.550;2022-12-29T07:11:54;4.72;;;1.90;;
74512;SDS011;62992;52.052;8.550;2022-12-29T07:14:38;2.25;;;0.70;;
74512;SDS011;62992;52.052;8.550;2022-12-29T07:17:23;3.17;;;1.30;;
74512;SDS011;62992;52.052;8.550;2022-12-29T07:20:07;0.95;;;0.70;;
74512;SDS011;62992;52.052;8.550;2022-12-29T07:22:53;1.90;;;0.65;;
74512;SDS011;62992;52.052;8.550;2022-12-29T07:25:37;1.77;;;0.73;;
74512;SDS011;62992;52.052;8.550;2022-12-29T07:31:12;1.00;;;0.55;;
74512;SDS011;62992;52.052;8.550;2022-12-29T07:33:59;1.90;;;0.73;;
74512;SDS011;62992;52.052;8.550;2022-12-29T07:36:43;2.92;;;0.55;;
74512;SDS011;62992;52.052;8.550;2022-12-29T07:39:27;1.27;;;0.50;;
74512;SDS011;62992;52.052;8.550;2022-12-29T07:42:11;2.95;;;0.77;;
74512;SDS011;62992;52.052;8.550;2022-12-29T07:44:55;9.68;;;2.10;;
74512;SDS011;62992;52.052;8.550;2022-12-29T07:47:39;1.75;;;0.73;;
74512;SDS011;62992;52.052;8.550;2022-12-29T07:50:23;2.58;;;1.15;;
74512;SDS011;62992;52.052;8.550;2022-12-29T07:53:07;3.00;;;0.70;;
74512;SDS011;62992;52.052;8.550;2022-12-29T07:55:51;2.45;;;0.80;;
74512;SDS011;62992;52.052;8.550;2022-12-29T07:58:35;2.80;;;0.60;;
74512;SDS011;62992;52.052;8.550;2022-12-29T08:01:19;1.33;;;0.70;;
74512;SDS011;62992;52.052;8.550;2022-12-29T08:04:03;3.90;;;0.93;;
74512;SDS011;62992;52.052;8.550;2022-12-29T08:06:48;3.50;;;0.73;;
74512;SDS011;62992;52.052;8.550;2022-12-29T08:09:32;3.65;;;0.73;;
74512;SDS011;62992;52.052;8.550;2022-12-29T08:12:16;2.15;;;0.50;;
74512;SDS011;62992;52.052;8.550;2022-12-29T08:15:01;1.60;;;0.60;;
74512;SDS011;62992;52.052;8.550;2022-12-29T08:17:45;1.88;;;0.63;;
74512;SDS011;62992;52.052;8.550;2022-12-29T08:20:29;2.03;;;0.63;;
74512;SDS011;62992;52.052;8.550;2022-12-29T08:23:13;6.53;;;1.00;;
74512;SDS011;62992;52.052;8.550;2022-12-29T08:25:58;1.83;;;0.45;;
74512;SDS011;62992;52.052;8.550;2022-12-29T08:28:43;2.03;;;0.80;;
74512;SDS011;62992;52.052;8.550;2022-12-29T08:31:27;1.63;;;0.65;;
74512;SDS011;62992;52.052;8.550;2022-12-29T08:34:12;2.47;;;0.75;;
74512;SDS011;62992;52.052;8.550;2022-12-29T08:36:56;3.95;;;1.00;;
74512;SDS011;62992;52.052;8.550;2022-12-29T08:39:40;2.58;;;0.70;;
74512;SDS011;62992;52.052;8.550;2022-12-29T08:42:24;2.67;;;0.70;;
74512;SDS011;62992;52.052;8.550;2022-12-29T08:45:14;1.92;;;0.80;;
74512;SDS011;62992;52.052;8.550;2022-12-29T08:47:58;4.18;;;0.75;;
74512;SDS011;62992;52.052;8.550;2022-12-29T08:50:42;1.45;;;0.60;;
74512;SDS011;62992;52.052;8.550;2022-12-29T08:53:27;1.55;;;0.60;;
74512;SDS011;62992;52.052;8.550;2022-12-29T08:56:11;3.50;;;1.25;;
74512;SDS011;62992;52.052;8.550;2022-12-29T08:58:55;2.15;;;0.60;;
74512;SDS011;62992;52.052;8.550;2022-12-29T09:01:39;1.33;;;0.60;;
74512;SDS011;62992;52.052;8.550;2022-12-29T09:04:24;2.05;;;0.95;;
74512;SDS011;62992;52.052;8.550;2022-12-29T09:07:09;3.93;;;1.23;;
74512;SDS011;62992;52.052;8.550;2022-12-29T09:09:53;2.30;;;0.63;;
74512;SDS011;62992;52.052;8.550;2022-12-29T09:12:37;3.42;;;1.02;;
74512;SDS011;62992;52.052;8.550;2022-12-29T09:15:21;3.00;;;0.82;;
74512;SDS011;62992;52.052;8.550;2022-12-29T09:18:06;1.38;;;0.80;;
74512;SDS011;62992;52.052;8.550;2022-12-29T09:20:58;1.70;;;0.88;;
74512;SDS011;62992;52.052;8.550;2022-12-29T09:23:43;1.95;;;1.17;;
74512;SDS011;62992;52.052;8.550;2022-12-29T09:26:27;2.88;;;0.90;;
74512;SDS011;62992;52.052;8.550;2022-12-29T09:29:11;2.08;;;0.80;;
74512;SDS011;62992;52.052;8.550;2022-12-29T09:31:55;4.32;;;0.80;;
74512;SDS011;62992;52.052;8.550;2022-12-29T09:34:39;1.67;;;0.70;;
74512;SDS011;62992;52.052;8.550;2022-12-29T09:37:23;1.73;;;0.70;;
74512;SDS011;62992;52.052;8.550;2022-12-29T09:40:07;3.30;;;1.00;;
74512;SDS011;62992;52.052;8.550;2022-12-29T09:45:52;3.33;;;1.08;;
74512;SDS011;62992;52.052;8.550;2022-12-29T09:48:47;4.53;;;0.85;;
74512;SDS011;62992;52.052;8.550;2022-12-29T09:51:36;2.85;;;0.98;;
74512;SDS011;62992;52.052;8.550;2022-12-29T09:57:33;3.85;;;1.10;;
74512;SDS011;62992;52.052;8.550;2022-12-29T10:00:37;2.95;;;0.93;;
74512;SDS011;62992;52.052;8.550;2022-12-29T10:15:56;4.30;;;1.13;;
74512;SDS011;62992;52.052;8.550;2022-12-29T10:19:30;3.58;;;0.70;;
74512;SDS011;62992;52.052;8.550;2022-12-29T10:22:52;5.22;;;1.02;;
74512;SDS011;62992;52.052;8.550;2022-12-29T10:26:02;2.35;;;0.90;;
74512;SDS011;62992;52.052;8.550;2022-12-29T10:28:53;5.40;;;0.90;;
74512;SDS011;62992;52.052;8.550;2022-12-29T10:31:57;7.03;;;0.90;;
74512;SDS011;62992;52.052;8.550;2022-12-29T10:34:51;6.38;;;0.93;;
74512;SDS011;62992;52.052;8.550;2022-12-29T10:40:53;5.25;;;1.17;;
74512;SDS011;62992;52.052;8.550;2022-12-29T10:43:45;3.05;;;0.70;;
74512;SDS011;62992;52.052;8.550;2022-12-29T10:46:33;4.38;;;0.90;;
74512;SDS011;62992;52.052;8.550;2022-12-29T10:49:20;4.10;;;0.63;;
74512;SDS011;62992;52.052;8.550;2022-12-29T10:52:04;4.30;;;1.73;;
74512;SDS011;62992;52.052;8.550;2022-12-29T10:54:53;1.80;;;0.63;;
74512;SDS011;62992;52.052;8.550;2022-12-29T10:57:46;4.57;;;1.00;;
74512;SDS011;62992;52.052;8.550;2022-12-29T11:00:31;5.28;;;1.67;;
74512;SDS011;62992;52.052;8.550;2022-12-29T11:03:26;2.45;;;0.85;;
74512;SDS011;62992;52.052;8.550;2022-12-29T11:06:32;7.28;;;1.20;;
74512;SDS011;62992;52.052;8.550;2022-12-29T11:09:25;5.72;;;1.30;;
74512;SDS011;62992;52.052;8.550;2022-12-29T11:12:17;6.70;;;0.90;;
74512;SDS011;62992;52.052;8.550;2022-12-29T11:17:57;5.80;;;1.23;;
74512;SDS011;62992;52.052;8.550;2022-12-29T11:20:41;4.95;;;0.90;;
74512;SDS011;62992;52.052;8.550;2022-12-29T11:26:25;5.63;;;1.23;;
74512;SDS011;62992;52.052;8.550;2022-12-29T11:31:58;4.43;;;0.80;;
74512;SDS011;62992;52.052;8.550;2022-12-29T11:34:42;3.60;;;0.63;;
74512;SDS011;62992;52.052;8.550;2022-12-29T11:37:28;6.35;;;0.90;;
74512;SDS011;62992;52.052;8.550;2022-12-29T11:40:18;5.80;;;0.88;;
74512;SDS011;62992;52.052;8.550;2022-12-29T11:43:04;3.40;;;0.93;;
74512;SDS011;62992;52.052;8.550;2022-12-29T11:45:49;4.32;;;1.35;;
74512;SDS011;62992;52.052;8.550;2022-12-29T11:48:39;5.15;;;0.90;;
74512;SDS011;62992;52.052;8.550;2022-12-29T11:51:26;3.53;;;0.98;;
74512;SDS011;62992;52.052;8.550;2022-12-29T11:54:17;4.47;;;0.65;;
74512;SDS011;62992;52.052;8.550;2022-12-29T11:57:14;3.45;;;1.10;;
74512;SDS011;62992;52.052;8.550;2022-12-29T12:00:13;3.33;;;0.90;;
74512;SDS011;62992;52.052;8.550;2022-12-29T12:03:01;4.22;;;0.90;;
74512;SDS011;62992;52.052;8.550;2022-12-29T12:05:51;4.70;;;1.00;;
74512;SDS011;62992;52.052;8.550;2022-12-29T12:08:55;4.43;;;1.20;;
74512;SDS011;62992;52.052;8.550;2022-12-29T12:11:43;5.82;;;0.80;;
74512;SDS011;62992;52.052;8.550;2022-12-29T12:17:29;2.75;;;0.70;;
74512;SDS011;62992;52.052;8.550;2022-12-29T12:20:54;1.80;;;0.60;;
74512;SDS011;62992;52.052;8.550;2022-12-29T12:24:04;3.40;;;0.60;;
74512;SDS011;62992;52.052;8.550;2022-12-29T12:30:11;2.72;;;0.75;;
74512;SDS011;62992;52.052;8.550;2022-12-29T12:33:04;5.03;;;0.85;;
74512;SDS011;62992;52.052;8.550;2022-12-29T12:36:09;2.05;;;0.80;;
74512;SDS011;62992;52.052;8.550;2022-12-29T12:39:11;2.13;;;1.08;;
74512;SDS011;62992;52.052;8.550;2022-12-29T12:45:30;3.22;;;0.85;;
74512;SDS011;62992;52.052;8.550;2022-12-29T13:07:55;3.90;;;1.00;;
74512;SDS011;62992;52.052;8.550;2022-12-29T13:10:48;6.35;;;1.25;;
74512;SDS011;62992;52.052;8.550;2022-12-29T13:16:42;3.75;;;1.00;;
74512;SDS011;62992;52.052;8.550;2022-12-29T13:20:25;5.05;;;1.15;;
74512;SDS011;62992;52.052;8.550;2022-12-29T13:41:25;3.00;;;1.00;;
74512;SDS011;62992;52.052;8.550;2022-12-29T13:44:16;4.72;;;0.80;;
74512;SDS011;62992;52.052;8.550;2022-12-29T13:50:19;4.68;;;1.15;;
74512;SDS011;62992;52.052;8.550;2022-12-29T13:53:19;2.53;;;0.73;;
74512;SDS011;62992;52.052;8.550;2022-12-29T13:56:26;7.97;;;1.40;;
74512;SDS011;62992;52.052;8.550;2022-12-29T14:05:29;4.75;;;0.98;;
74512;SDS011;62992;52.052;8.550;2022-12-29T14:11:02;3.47;;;0.88;;
74512;SDS011;62992;52.052;8.550;2022-12-29T14:13:53;5.05;;;0.90;;
74512;SDS011;62992;52.052;8.550;2022-12-29T14:16:37;3.58;;;1.20;;
74512;SDS011;62992;52.052;8.550;2022-12-29T14:19:31;3.20;;;0.98;;
74512;SDS011;62992;52.052;8.550;2022-12-29T14:22:23;6.20;;;1.08;;
74512;SDS011;62992;52.052;8.550;2022-12-29T14:25:10;2.53;;;1.00;;
74512;SDS011;62992;52.052;8.550;2022-12-29T14:36:57;5.50;;;1.17;;
74512;SDS011;62992;52.052;8.550;2022-12-29T14:39:45;4.75;;;1.45;;
74512;SDS011;62992;52.052;8.550;2022-12-29T14:42:29;4.10;;;1.13;;
74512;SDS011;62992;52.052;8.550;2022-12-29T14:47:58;4.72;;;1.13;;
74512;SDS011;62992;52.052;8.550;2022-12-29T14:50:43;6.05;;;1.10;;
74512;SDS011;62992;52.052;8.550;2022-12-29T14:56:28;3.58;;;1.00;;
74512;SDS011;62992;52.052;8.550;2022-12-29T14:59:15;3.70;;;1.00;;
74512;SDS011;62992;52.052;8.550;2022-12-29T15:04:47;4.27;;;0.80;;
74512;SDS011;62992;52.052;8.550;2022-12-29T15:07:32;5.57;;;1.00;;
74512;SDS011;62992;52.052;8.550;2022-12-29T15:10:18;7.47;;;1.60;;
74512;SDS011;62992;52.052;8.550;2022-12-29T15:13:04;3.38;;;1.00;;
74512;SDS011;62992;52.052;8.550;2022-12-29T15:15:57;9.23;;;0.90;;
74512;SDS011;62992;52.052;8.550;2022-12-29T15:18:41;3.97;;;0.77;;
74512;SDS011;62992;52.052;8.550;2022-12-29T15:21:29;4.70;;;1.38;;
74512;SDS011;62992;52.052;8.550;2022-12-29T15:24:17;3.78;;;0.80;;
74512;SDS011;62992;52.052;8.550;2022-12-29T15:27:03;7.13;;;1.20;;
74512;SDS011;62992;52.052;8.550;2022-12-29T15:29:48;2.60;;;1.15;;
74512;SDS011;62992;52.052;8.550;2022-12-29T15:32:42;4.72;;;1.10;;
74512;SDS011;62992;52.052;8.550;2022-12-29T15:41:00;4.50;;;0.90;;
74512;SDS011;62992;52.052;8.550;2022-12-29T15:43:58;3.67;;;1.17;;
74512;SDS011;62992;52.052;8.550;2022-12-29T15:47:24;3.95;;;1.20;;
74512;SDS011;62992;52.052;8.550;2022-12-29T15:50:32;8.32;;;1.35;;
74512;SDS011;62992;52.052;8.550;2022-12-29T15:53:31;3.97;;;1.00;;
74512;SDS011;62992;52.052;8.550;2022-12-29T15:56:17;4.93;;;1.00;;
74512;SDS011;62992;52.052;8.550;2022-12-29T15:59:01;5.55;;;1.60;;
74512;SDS011;62992;52.052;8.550;2022-12-29T16:01:46;4.05;;;0.93;;
74512;SDS011;62992;52.052;8.550;2022-12-29T16:04:30;4.90;;;1.48;;
74512;SDS011;62992;52.052;8.550;2022-12-29T16:07:23;5.28;;;1.13;;
74512;SDS011;62992;52.052;8.550;2022-12-29T16:10:21;8.73;;;1.73;;
74512;SDS011;62992;52.052;8.550;2022-12-29T16:18:57;11.00;;;2.72;;
74512;SDS011;62992;52.052;8.550;2022-12-29T16:21:42;4.80;;;1.40;;
74512;SDS011;62992;52.052;8.550;2022-12-29T16:24:28;5.10;;;1.30;;
74512;SDS011;62992;52.052;8.550;2022-12-29T16:27:23;7.45;;;1.05;;
74512;SDS011;62992;52.052;8.550;2022-12-29T16:30:22;7.15;;;1.33;;
74512;SDS011;62992;52.052;8.550;2022-12-29T16:36:34;6.05;;;1.23;;
74512;SDS011;62992;52.052;8.550;2022-12-29T16:39:31;6.65;;;1.27;;
74512;SDS011;62992;52.052;8.550;2022-12-29T16:45:31;5.72;;;1.20;;
74512;SDS011;62992;52.052;8.550;2022-12-29T16:48:23;4.75;;;1.00;;
74512;SDS011;62992;52.052;8.550;2022-12-29T16:54:21;5.63;;;1.40;;
74512;SDS011;62992;52.052;8.550;2022-12-29T16:57:07;6.70;;;1.70;;
74512;SDS011;62992;52.052;8.550;2022-12-29T16:59:53;6.03;;;1.23;;
74512;SDS011;62992;52.052;8.550;2022-12-29T17:02:40;4.55;;;0.90;;
74512;SDS011;62992;52.052;8.550;2022-12-29T17:05:28;4.00;;;0.82;;
74512;SDS011;62992;52.052;8.550;2022-12-29T17:08:19;6.45;;;1.30;;
74512;SDS011;62992;52.052;8.550;2022-12-29T17:11:14;8.70;;;1.25;;
74512;SDS011;62992;52.052;8.550;2022-12-29T17:14:23;4.78;;;0.73;;
74512;SDS011;62992;52.052;8.550;2022-12-29T17:17:35;3.25;;;1.10;;
74512;SDS011;62992;52.052;8.550;2022-12-29T17:20:29;7.63;;;1.60;;
74512;SDS011;62992;52.052;8.550;2022-12-29T17:23:14;6.22;;;1.27;;
74512;SDS011;62992;52.052;8.550;2022-12-29T17:25:59;3.87;;;1.50;;
74512;SDS011;62992;52.052;8.550;2022-12-29T17:28:43;4.78;;;1.70;;
74512;SDS011;62992;52.052;8.550;2022-12-29T17:31:30;8.40;;;2.25;;
74512;SDS011;62992;52.052;8.550;2022-12-29T17:34:14;6.15;;;1.95;;
74512;SDS011;62992;52.052;8.550;2022-12-29T17:36:58;5.80;;;2.00;;
74512;SDS011;62992;52.052;8.550;2022-12-29T17:39:42;6.55;;;1.83;;
74512;SDS011;62992;52.052;8.550;2022-12-29T17:42:26;2.95;;;1.70;;
74512;SDS011;62992;52.052;8.550;2022-12-29T17:45:17;5.97;;;1.95;;
74512;SDS011;62992;52.052;8.550;2022-12-29T17:48:12;5.40;;;1.83;;
74512;SDS011;62992;52.052;8.550;2022-12-29T17:50:57;4.22;;;1.58;;
74512;SDS011;62992;52.052;8.550;2022-12-29T17:53:42;5.32;;;1.90;;
74512;SDS011;62992;52.052;8.550;2022-12-29T17:56:26;5.32;;;1.83;;
74512;SDS011;62992;52.052;8.550;2022-12-29T17:59:11;1.95;;;1.35;;
74512;SDS011;62992;52.052;8.550;2022-12-29T18:01:57;3.67;;;1.42;;
74512;SDS011;62992;52.052;8.550;2022-12-29T18:04:41;8.30;;;1.40;;
74512;SDS011;62992;52.052;8.550;2022-12-29T18:07:26;5.18;;;1.20;;
74512;SDS011;62992;52.052;8.550;2022-12-29T18:10:12;5.25;;;1.88;;
74512;SDS011;62992;52.052;8.550;2022-12-29T18:12:58;3.03;;;1.40;;
74512;SDS011;62992;52.052;8.550;2022-12-29T18:15:43;10.32;;;1.63;;
74512;SDS011;62992;52.052;8.550;2022-12-29T18:18:27;5.80;;;1.50;;
74512;SDS011;62992;52.052;8.550;2022-12-29T18:21:18;5.95;;;1.20;;
74512;SDS011;62992;52.052;8.550;2022-12-29T18:24:04;6.40;;;1.20;;
74512;SDS011;62992;52.052;8.550;2022-12-29T18:26:48;3.72;;;1.30;;
74512;SDS011;62992;52.052;8.550;2022-12-29T18:29:32;6.38;;;1.20;;
74512;SDS011;62992;52.052;8.550;2022-12-29T18:32:18;7.43;;;1.30;;
74512;SDS011;62992;52.052;8.550;2022-12-29T18:35:08;2.70;;;0.82;;
74512;SDS011;62992;52.052;8.550;2022-12-29T18:37:58;6.22;;;1.65;;
74512;SDS011;62992;52.052;8.550;2022-12-29T18:40:42;3.42;;;0.95;;
74512;SDS011;62992;52.052;8.550;2022-12-29T18:43:27;4.40;;;1.13;;
74512;SDS011;62992;52.052;8.550;2022-12-29T18:46:11;4.68;;;1.08;;
74512;SDS011;62992;52.052;8.550;2022-12-29T18:48:56;5.38;;;0.90;;
74512;SDS011;62992;52.052;8.550;2022-12-29T18:51:40;3.72;;;1.08;;
74512;SDS011;62992;52.052;8.550;2022-12-29T18:54:30;4.53;;;0.82;;
74512;SDS011;62992;52.052;8.550;2022-12-29T18:57:15;5.45;;;4.07;;
74512;SDS011;62992;52.052;8.550;2022-12-29T19:00:00;4.05;;;1.10;;
74512;SDS011;62992;52.052;8.550;2022-12-29T19:02:44;4.07;;;1.38;;
74512;SDS011;62992;52.052;8.550;2022-12-29T19:05:31;4.72;;;2.55;;
74512;SDS011;62992;52.052;8.550;2022-12-29T19:08:21;7.53;;;3.75;;
74512;SDS011;62992;52.052;8.550;2022-12-29T19:11:05;19.17;;;10.48;;
74512;SDS011;62992;52.052;8.550;2022-12-29T19:13:49;8.45;;;3.38;;
74512;SDS011;62992;52.052;8.550;2022-12-29T19:16:33;9.82;;;4.25;;
74512;SDS011;62992;52.052;8.550;2022-12-29T19:19:18;22.20;;;11.73;;
74512;SDS011;62992;52.052;8.550;2022-12-29T19:22:02;9.18;;;4.65;;
74512;SDS011;62992;52.052;8.550;2022-12-29T19:24:47;3.67;;;2.05;;
74512;SDS011;62992;52.052;8.550;2022-12-29T19:27:30;4.07;;;1.55;;
74512;SDS011;62992;52.052;8.550;2022-12-29T19:30:16;5.22;;;1.20;;
74512;SDS011;62992;52.052;8.550;2022-12-29T19:33:02;4.57;;;2.03;;
74512;SDS011;62992;52.052;8.550;2022-12-29T19:35:47;8.10;;;2.78;;